createdAt,value
2018-09-02T00:01:52.437Z,14.03
2018-09-02T00:04:21.122Z,13.03
2018-09-02T00:06:49.797Z,13.20
2018-09-02T00:09:18.497Z,14.17
2018-09-02T00:11:47.318Z,12.97
2018-09-02T00:14:16.028Z,13.43
2018-09-02T00:16:44.774Z,13.93
2018-09-02T00:19:13.486Z,14.00
2018-09-02T00:21:42.101Z,13.47
2018-09-02T00:24:10.777Z,14.67
2018-09-02T00:26:39.426Z,14.20
2018-09-02T00:29:08.138Z,14.13
2018-09-02T00:31:36.748Z,12.93
2018-09-02T00:34:05.422Z,11.77
2018-09-02T00:36:34.093Z,12.63
2018-09-02T00:39:02.889Z,12.70
2018-09-02T00:41:31.614Z,12.10
2018-09-02T00:44:00.373Z,13.03
2018-09-02T00:46:29.070Z,13.13
2018-09-02T00:48:58.846Z,12.97
2018-09-02T00:51:27.794Z,12.37
2018-09-02T00:53:56.994Z,12.80
2018-09-02T00:56:25.846Z,13.20
2018-09-02T00:58:54.550Z,13.37
2018-09-02T01:01:23.240Z,12.27
2018-09-02T01:03:52.065Z,13.27
2018-09-02T01:06:22.693Z,13.40
2018-09-02T01:08:51.314Z,12.57
2018-09-02T01:11:20.062Z,13.17
2018-09-02T01:13:48.830Z,13.50
2018-09-02T01:16:17.772Z,12.63
2018-09-02T01:18:46.450Z,13.17
2018-09-02T01:21:15.095Z,12.53
2018-09-02T01:23:43.801Z,13.07
2018-09-02T01:26:12.544Z,12.43
2018-09-02T01:28:41.338Z,12.63
2018-09-02T01:31:10.006Z,13.60
2018-09-02T01:33:39.634Z,13.60
2018-09-02T01:36:08.409Z,12.60
2018-09-02T01:38:37.264Z,13.23
2018-09-02T01:41:06.515Z,13.90
2018-09-02T01:43:35.266Z,13.47
2018-09-02T01:46:03.888Z,13.67
2018-09-02T01:48:32.682Z,13.00
2018-09-02T01:51:01.478Z,12.83
2018-09-02T01:53:30.424Z,13.27
2018-09-02T01:55:59.238Z,13.50
2018-09-02T01:58:27.805Z,13.47
2018-09-02T02:00:56.521Z,14.00
2018-09-02T02:03:25.802Z,13.97
2018-09-02T02:05:54.527Z,13.80
2018-09-02T02:08:23.224Z,13.13
2018-09-02T02:10:53.029Z,13.73
2018-09-02T02:13:21.630Z,13.90
2018-09-02T02:15:50.392Z,14.17
2018-09-02T02:18:19.304Z,14.43
2018-09-02T02:20:48.123Z,14.30
2018-09-02T02:23:17.522Z,13.77
2018-09-02T02:25:46.930Z,14.00
2018-09-02T02:28:15.597Z,14.33
2018-09-02T02:30:44.494Z,13.43
2018-09-02T02:33:14.339Z,12.90
2018-09-02T02:35:43.825Z,12.87
2018-09-02T02:38:12.648Z,13.53
2018-09-02T02:40:41.420Z,13.57
2018-09-02T02:43:10.322Z,13.33
2018-09-02T02:45:39.113Z,14.00
2018-09-02T02:48:08.761Z,13.63
2018-09-02T02:50:37.457Z,13.43
2018-09-02T02:53:06.723Z,13.07
2018-09-02T02:55:36.249Z,14.67
2018-09-02T02:58:05.166Z,13.40
2018-09-02T03:00:33.918Z,13.50
2018-09-02T03:03:02.774Z,13.43
2018-09-02T03:05:32.427Z,13.03
2018-09-02T03:08:01.218Z,13.90
2018-09-02T03:10:30.001Z,13.77
2018-09-02T03:12:58.630Z,13.43
2018-09-02T03:15:27.329Z,13.70
2018-09-02T03:17:56.055Z,13.57
2018-09-02T03:20:24.999Z,13.27
2018-09-02T03:22:53.885Z,14.50
2018-09-02T03:25:22.541Z,13.43
2018-09-02T03:27:51.470Z,14.03
2018-09-02T03:30:20.179Z,15.07
2018-09-02T03:32:48.899Z,13.47
2018-09-02T03:35:17.829Z,14.03
2018-09-02T03:37:46.524Z,14.00
2018-09-02T03:40:15.423Z,13.90
2018-09-02T03:42:44.109Z,14.13
2018-09-02T03:45:12.782Z,14.10
2018-09-02T03:47:41.477Z,13.70
2018-09-02T03:50:10.170Z,14.07
2018-09-02T03:52:39.794Z,13.67
2018-09-02T03:55:08.544Z,14.30
2018-09-02T03:57:38.270Z,14.47
2018-09-02T04:00:07.599Z,14.30
2018-09-02T04:02:37.305Z,15.50
2018-09-02T04:05:06.617Z,14.97
2018-09-02T04:07:35.386Z,14.30
2018-09-02T04:10:04.106Z,14.47
2018-09-02T04:12:33.629Z,14.90
2018-09-02T04:15:02.434Z,15.03
2018-09-02T04:17:31.178Z,14.10
2018-09-02T04:20:01.219Z,15.20
2018-09-02T04:22:29.853Z,14.77
2018-09-02T04:24:58.549Z,14.53
2018-09-02T04:27:28.298Z,14.80
2018-09-02T04:29:57.002Z,14.23
2018-09-02T04:32:25.895Z,14.30
2018-09-02T04:34:54.555Z,14.50
2018-09-02T04:37:23.256Z,13.80
2018-09-02T04:39:52.074Z,14.00
2018-09-02T04:42:20.756Z,14.13
2018-09-02T04:44:49.359Z,13.40
2018-09-02T04:47:18.031Z,13.60
2018-09-02T04:49:46.692Z,13.13
2018-09-02T04:52:15.758Z,12.70
2018-09-02T04:54:44.470Z,11.97
2018-09-02T04:57:13.215Z,12.47
2018-09-02T04:59:41.818Z,12.87
2018-09-02T05:02:10.677Z,12.73
2018-09-02T05:04:39.292Z,11.80
2018-09-02T05:07:07.902Z,11.97
2018-09-02T05:09:36.597Z,11.60
2018-09-02T05:12:05.329Z,12.30
2018-09-02T05:14:33.948Z,11.43
2018-09-02T05:17:02.953Z,11.60
2018-09-02T05:19:32.201Z,12.87
2018-09-02T05:22:00.975Z,11.70
2018-09-02T05:24:29.742Z,11.37
2018-09-02T05:26:58.470Z,11.13
2018-09-02T05:29:27.204Z,11.77
2018-09-02T05:31:56.574Z,11.27
2018-09-02T05:34:26.317Z,11.67
2018-09-02T05:36:55.132Z,11.53
2018-09-02T05:39:24.176Z,11.67
2018-09-02T05:41:52.879Z,11.87
2018-09-02T05:44:21.583Z,12.17
2018-09-02T05:46:50.206Z,11.27
2018-09-02T05:49:18.950Z,11.53
2018-09-02T05:51:48.161Z,11.70
2018-09-02T05:54:17.049Z,11.53
2018-09-02T05:56:45.814Z,11.17
2018-09-02T05:59:15.073Z,11.97
2018-09-02T06:01:43.898Z,11.30
2018-09-02T06:04:12.642Z,12.30
2018-09-02T06:06:42.373Z,11.83
2018-09-02T06:09:11.179Z,11.90
2018-09-02T06:11:40.110Z,11.90
2018-09-02T06:14:09.501Z,10.97
2018-09-02T06:16:38.371Z,10.77
2018-09-02T06:19:07.038Z,11.30
2018-09-02T06:21:35.732Z,11.30
2018-09-02T06:24:04.350Z,12.50
2018-09-02T06:26:33.229Z,11.80
2018-09-02T06:29:01.818Z,12.17
2018-09-02T06:31:30.505Z,12.37
2018-09-02T06:33:59.177Z,12.63
2018-09-02T06:36:27.788Z,12.43
2018-09-02T06:38:56.695Z,11.77
2018-09-02T06:41:25.383Z,12.70
2018-09-02T06:43:54.057Z,12.77
2018-09-02T06:46:22.674Z,13.40
2018-09-02T06:48:51.533Z,12.27
2018-09-02T06:51:20.338Z,12.63
2018-09-02T06:53:49.013Z,12.93
2018-09-02T06:56:17.623Z,12.97
2018-09-02T06:58:47.463Z,13.37
2018-09-02T07:01:16.090Z,14.27
2018-09-02T07:03:44.781Z,14.17
2018-09-02T07:06:13.435Z,14.90
2018-09-02T07:08:42.802Z,14.83
2018-09-02T07:11:11.475Z,14.43
2018-09-02T07:13:40.289Z,14.80
2018-09-02T07:16:09.311Z,15.10
2018-09-02T07:18:38.103Z,14.17
2018-09-02T07:21:06.804Z,15.20
2018-09-02T07:23:35.541Z,15.37
2018-09-02T07:26:04.549Z,15.37
2018-09-02T07:28:34.240Z,14.83
2018-09-02T07:31:03.042Z,15.23
2018-09-02T07:33:31.863Z,14.97
2018-09-02T07:36:00.714Z,15.40
2018-09-02T07:38:30.551Z,14.97
2018-09-02T07:40:59.189Z,15.73
2018-09-02T07:43:27.842Z,15.40
2018-09-02T07:45:56.746Z,16.40
2018-09-02T07:48:31.729Z,16.00
2018-09-02T07:51:00.576Z,16.13
2018-09-02T07:53:29.261Z,16.37
2018-09-02T07:55:57.981Z,15.67
2018-09-02T07:58:26.951Z,17.03
2018-09-02T08:00:55.733Z,16.37
2018-09-02T08:03:24.892Z,17.20
2018-09-02T08:05:53.641Z,17.50
2018-09-02T08:08:22.278Z,17.60
2018-09-02T08:10:51.870Z,18.77
2018-09-02T08:13:20.552Z,17.33
2018-09-02T08:15:49.410Z,17.33
2018-09-02T08:18:18.201Z,16.40
2018-09-02T08:20:46.870Z,18.00
2018-09-02T08:23:15.838Z,17.37
2018-09-02T08:25:45.437Z,16.87
2018-09-02T08:28:21.170Z,18.33
2018-09-02T08:30:50.108Z,17.67
2018-09-02T08:33:19.343Z,17.93
2018-09-02T08:35:48.029Z,17.83
2018-09-02T08:38:17.862Z,17.70
2018-09-02T08:40:46.880Z,17.40
2018-09-02T08:43:15.508Z,17.77
2018-09-02T08:45:44.231Z,18.33
2018-09-02T08:48:13.018Z,17.83
2018-09-02T08:50:41.826Z,17.80
2018-09-02T08:53:11.513Z,18.60
2018-09-02T08:55:40.467Z,20.93
2018-09-02T08:58:10.291Z,18.87
2018-09-02T09:00:39.173Z,19.80
2018-09-02T09:03:07.962Z,20.87
2018-09-02T09:05:37.590Z,21.23
2018-09-02T09:08:07.809Z,20.60
2018-09-02T09:10:36.765Z,21.27
2018-09-02T09:13:06.469Z,20.93
2018-09-02T09:15:35.376Z,19.53
2018-09-02T09:18:04.489Z,20.27
2018-09-02T09:20:33.371Z,20.67
2018-09-02T09:23:02.178Z,20.17
2018-09-02T09:25:30.778Z,20.73
2018-09-02T09:27:59.689Z,20.80
2018-09-02T09:30:28.556Z,21.07
2018-09-02T09:32:57.590Z,21.23
2018-09-02T09:35:26.357Z,21.70
2018-09-02T09:37:56.055Z,20.93
2018-09-02T09:40:25.153Z,21.53
2018-09-02T09:42:55.890Z,21.33
2018-09-02T09:45:24.585Z,22.23
2018-09-02T09:47:54.114Z,20.70
2018-09-02T09:50:22.898Z,22.00
2018-09-02T09:52:51.902Z,20.17
2018-09-02T09:55:20.877Z,21.43
2018-09-02T09:57:49.617Z,20.73
2018-09-02T10:00:24.730Z,21.13
2018-09-02T10:02:53.605Z,20.20
2018-09-02T10:05:22.368Z,20.00
2018-09-02T10:07:51.264Z,19.73
2018-09-02T10:10:19.908Z,19.67
2018-09-02T10:12:49.615Z,19.97
2018-09-02T10:15:18.314Z,21.30
2018-09-02T10:17:47.084Z,20.43
2018-09-02T10:20:15.765Z,20.70
2018-09-02T10:22:44.474Z,20.20
2018-09-02T10:25:13.911Z,20.60
2018-09-02T10:27:42.693Z,21.03
2018-09-02T10:30:11.437Z,20.13
2018-09-02T10:32:40.546Z,19.83
2018-09-02T10:35:09.261Z,20.57
2018-09-02T10:37:38.863Z,20.80
2018-09-02T10:40:07.757Z,21.77
2018-09-02T10:42:38.011Z,20.87
2018-09-02T10:45:07.222Z,21.33
2018-09-02T10:47:36.378Z,23.53
2018-09-02T10:50:05.555Z,23.53
2018-09-02T10:52:34.781Z,23.33
2018-09-02T10:55:03.467Z,23.60
2018-09-02T10:57:32.387Z,23.37
2018-09-02T11:00:01.583Z,22.60
2018-09-02T11:02:30.383Z,22.67
2018-09-02T11:04:59.175Z,23.00
2018-09-02T11:07:28.162Z,22.80
2018-09-02T11:09:57.004Z,23.10
2018-09-02T11:12:25.713Z,23.93
2018-09-02T11:14:54.388Z,21.93
2018-09-02T11:17:23.336Z,22.53
2018-09-02T11:19:52.259Z,22.43
2018-09-02T11:22:20.909Z,22.13
2018-09-02T11:24:49.747Z,22.67
2018-09-02T11:27:18.880Z,21.93
2018-09-02T11:29:47.953Z,22.67
2018-09-02T11:32:17.006Z,21.23
2018-09-02T11:34:47.881Z,21.20
2018-09-02T11:37:17.388Z,21.57
2018-09-02T11:39:46.585Z,20.82
2018-09-02T11:42:15.965Z,21.27
2018-09-02T11:44:44.599Z,20.88
2018-09-02T11:47:13.453Z,20.10
2018-09-02T11:49:42.282Z,22.35
2018-09-02T11:52:11.266Z,20.95
2018-09-02T11:54:39.941Z,21.00
2018-09-02T11:57:08.703Z,21.87
2018-09-02T11:59:37.617Z,20.57
2018-09-02T12:02:07.293Z,21.40
2018-09-02T12:04:37.089Z,21.33
2018-09-02T12:07:05.831Z,20.02
2018-09-02T12:09:35.510Z,20.92
2018-09-02T12:12:04.401Z,21.33
2018-09-02T12:14:33.342Z,21.12
2018-09-02T12:17:02.001Z,20.48
2018-09-02T12:19:30.826Z,20.93
2018-09-02T12:21:59.534Z,21.82
2018-09-02T12:24:28.295Z,21.50
2018-09-02T12:26:57.618Z,21.07
2018-09-02T12:29:26.512Z,20.40
2018-09-02T12:31:55.274Z,21.30
2018-09-02T12:34:24.102Z,21.03
2018-09-02T12:36:52.910Z,21.87
2018-09-02T12:39:21.572Z,20.20
2018-09-02T12:41:50.662Z,21.77
2018-09-02T12:44:19.953Z,21.27
2018-09-02T12:46:48.888Z,21.53
2018-09-02T12:49:17.722Z,22.13
2018-09-02T12:51:46.487Z,20.73
2018-09-02T12:54:16.249Z,20.57
2018-09-02T12:56:45.046Z,20.47
2018-09-02T12:59:13.865Z,20.67
2018-09-02T13:01:42.582Z,20.00
2018-09-02T13:04:11.629Z,20.40
2018-09-02T13:06:40.403Z,20.63
2018-09-02T13:09:10.025Z,19.80
2018-09-02T13:11:39.473Z,20.30
2018-09-02T13:14:08.170Z,18.73
2018-09-02T13:16:36.996Z,19.90
2018-09-02T13:19:06.216Z,18.75
2018-09-02T13:21:34.828Z,17.87
2018-09-02T13:24:03.602Z,18.30
2018-09-02T13:26:32.594Z,18.42
2018-09-02T13:29:01.949Z,16.25
2018-09-02T13:31:31.057Z,17.15
2018-09-02T13:33:59.931Z,16.52
2018-09-02T13:36:29.989Z,16.65
2018-09-02T13:38:58.715Z,16.65
2018-09-02T13:41:27.913Z,16.73
2018-09-02T13:43:56.712Z,15.80
2018-09-02T13:46:25.658Z,15.70
2018-09-02T13:48:54.393Z,15.63
2018-09-02T13:51:23.283Z,15.98
2018-09-02T13:53:51.898Z,16.32
2018-09-02T13:56:20.521Z,15.85
2018-09-02T13:58:49.376Z,16.52
2018-09-02T14:01:18.150Z,13.13
2018-09-02T14:03:46.899Z,13.48
2018-09-02T14:06:15.633Z,13.45
2018-09-02T14:08:44.387Z,12.88
2018-09-02T14:11:13.445Z,13.13
2018-09-02T14:13:42.066Z,13.43
2018-09-02T14:16:10.849Z,13.60
2018-09-02T14:18:39.889Z,13.72
2018-09-02T14:21:08.528Z,14.70
2018-09-02T14:28:46.543Z,15.48
2018-09-02T14:31:15.291Z,15.58
2018-09-02T14:33:43.989Z,15.72
2018-09-02T14:36:13.145Z,15.20
2018-09-02T14:38:42.097Z,15.40
2018-09-02T14:41:10.963Z,16.10
2018-09-02T14:43:40.152Z,15.83
2018-09-02T14:46:09.198Z,15.65
2018-09-02T14:48:37.969Z,16.15
2018-09-02T14:51:06.897Z,16.32
2018-09-02T14:53:35.509Z,15.18
2018-09-02T14:56:04.313Z,15.40
2018-09-02T14:58:33.100Z,15.53
2018-09-02T15:01:01.975Z,15.85
2018-09-02T15:03:30.854Z,15.68
2018-09-02T15:06:01.451Z,16.20
2018-09-02T15:08:30.154Z,17.15
2018-09-02T15:10:58.889Z,16.77
2018-09-02T15:13:27.566Z,16.42
2018-09-02T15:15:56.450Z,17.48
2018-09-02T15:18:25.220Z,17.67
2018-09-02T15:20:54.162Z,16.03
2018-09-02T15:23:23.360Z,14.43
2018-09-02T15:25:53.126Z,14.13
2018-09-02T15:28:21.800Z,14.47
2018-09-02T15:30:53.425Z,15.40
2018-09-02T15:33:22.273Z,14.90
2018-09-02T15:35:51.107Z,14.33
2018-09-02T15:38:19.762Z,13.77
2018-09-02T15:40:48.934Z,13.33
2018-09-02T15:43:17.669Z,13.80
2018-09-02T15:45:46.489Z,12.97
2018-09-02T15:48:15.870Z,12.63
2018-09-02T15:50:46.075Z,11.53
2018-09-02T15:53:17.242Z,11.80
2018-09-02T15:55:45.938Z,12.10
2018-09-02T15:58:15.456Z,11.93
2018-09-02T16:00:44.858Z,11.97
2018-09-02T16:03:15.296Z,12.20
2018-09-02T16:05:45.400Z,11.77
2018-09-02T16:08:14.383Z,12.00
2018-09-02T16:10:46.917Z,11.97
2018-09-02T16:13:18.197Z,12.30
2018-09-02T16:15:47.182Z,12.43
2018-09-02T16:18:17.052Z,12.00
2018-09-02T16:20:45.825Z,12.83
2018-09-02T16:23:14.733Z,12.77
2018-09-02T16:25:44.441Z,12.27
2018-09-02T16:28:13.582Z,11.93
2018-09-02T16:30:42.568Z,11.83
2018-09-02T16:33:11.366Z,12.03
2018-09-02T16:35:40.263Z,12.50
2018-09-02T16:38:09.257Z,12.37
2018-09-02T16:40:38.829Z,12.50
2018-09-02T16:43:09.085Z,12.40
2018-09-02T16:45:37.989Z,11.77
2018-09-02T16:48:07.198Z,13.47
2018-09-02T16:50:36.523Z,14.33
2018-09-02T16:53:05.327Z,13.43
2018-09-02T16:55:33.963Z,12.60
2018-09-02T16:58:02.830Z,11.87
2018-09-02T17:00:31.646Z,11.97
2018-09-02T17:03:00.469Z,12.33
2018-09-02T17:05:29.351Z,11.70
2018-09-02T17:07:58.042Z,11.60
2018-09-02T17:10:27.680Z,12.70
2018-09-02T17:12:56.728Z,12.50
2018-09-02T17:15:25.538Z,12.40
2018-09-02T17:17:54.276Z,13.97
2018-09-02T17:20:27.951Z,14.47
2018-09-02T17:23:11.783Z,14.23
2018-09-02T17:25:41.486Z,14.07
2018-09-02T17:28:10.719Z,13.73
2018-09-02T17:30:41.362Z,15.27
2018-09-02T17:33:11.470Z,15.50
2018-09-02T17:35:40.264Z,14.80
2018-09-02T17:38:09.083Z,14.13
2018-09-02T17:40:37.804Z,15.67
2018-09-02T17:43:06.803Z,14.87
2018-09-02T17:45:35.432Z,14.47
2018-09-02T17:48:04.097Z,14.67
2018-09-02T17:50:32.994Z,14.77
2018-09-02T17:53:01.741Z,14.43
2018-09-02T17:55:31.257Z,14.30
2018-09-02T17:58:00.336Z,14.57
2018-09-02T18:00:32.917Z,14.83
2018-09-02T18:03:02.349Z,13.67
2018-09-02T18:05:31.142Z,13.23
2018-09-02T18:07:59.835Z,13.67
2018-09-02T18:10:28.518Z,14.17
2018-09-02T18:12:57.335Z,14.93
2018-09-02T18:15:25.990Z,15.50
2018-09-02T18:17:54.934Z,15.83
2018-09-02T18:20:23.950Z,15.00
2018-09-02T18:22:56.738Z,15.20
2018-09-02T18:25:27.418Z,15.20
2018-09-02T18:28:01.100Z,15.53
2018-09-02T18:30:34.938Z,15.80
2018-09-02T18:33:03.884Z,16.13
2018-09-02T18:35:33.076Z,15.87
2018-09-02T18:38:01.883Z,16.60
2018-09-02T18:40:30.545Z,17.87
2018-09-02T18:42:59.627Z,18.03
2018-09-02T18:45:29.473Z,18.53
2018-09-02T18:47:59.367Z,17.73
2018-09-02T18:50:28.554Z,16.43
2018-09-02T18:52:57.350Z,16.33
2018-09-02T18:55:26.143Z,16.13
2018-09-02T18:57:55.165Z,16.27
2018-09-02T19:00:25.386Z,16.63
2018-09-02T19:02:55.769Z,16.80
2018-09-02T19:05:24.912Z,15.80
2018-09-02T19:07:55.047Z,16.13
2018-09-02T19:10:24.532Z,16.97
2018-09-02T19:12:53.357Z,17.00
2018-09-02T19:15:22.438Z,17.30
2018-09-02T19:17:52.168Z,16.90
2018-09-02T19:20:21.353Z,17.50
2018-09-02T19:22:50.665Z,17.40
2018-09-02T19:25:19.313Z,17.63
2018-09-02T19:27:48.020Z,17.00
2018-09-02T19:30:17.123Z,16.40
2018-09-02T19:32:46.478Z,17.67
2018-09-02T19:35:15.643Z,16.40
2018-09-02T19:37:44.366Z,16.27
2018-09-02T19:40:13.588Z,16.53
2018-09-02T19:42:43.927Z,16.37
2018-09-02T19:45:13.709Z,16.40
2018-09-02T19:47:42.371Z,16.37
2018-09-02T19:50:11.825Z,16.43
2018-09-02T19:52:41.179Z,17.13
2018-09-02T19:55:11.092Z,17.40
2018-09-02T19:57:39.905Z,17.37
2018-09-02T20:00:10.692Z,17.43
2018-09-02T20:02:39.413Z,17.70
2018-09-02T20:05:09.265Z,17.30
2018-09-02T20:07:38.113Z,18.37
2018-09-02T20:10:08.226Z,19.17
2018-09-02T20:12:36.914Z,19.03
2018-09-02T20:15:06.212Z,18.80
2018-09-02T20:17:36.028Z,18.40
2018-09-02T20:20:04.724Z,18.63
2018-09-02T20:22:34.254Z,17.43
2018-09-02T20:25:02.957Z,17.77
2018-09-02T20:27:32.149Z,17.70
2018-09-02T20:30:01.705Z,17.90
2018-09-02T20:32:31.077Z,18.43
2018-09-02T20:34:59.997Z,17.17
2018-09-02T20:37:28.923Z,18.43
2018-09-02T20:39:57.763Z,17.90
2018-09-02T20:42:28.370Z,18.10
2018-09-02T20:44:57.319Z,18.30
2018-09-02T20:47:27.446Z,18.77
2018-09-02T20:49:56.399Z,19.33
2018-09-02T20:52:29.683Z,18.03
2018-09-02T20:54:58.385Z,18.57
2018-09-02T20:57:26.986Z,18.47
2018-09-02T20:59:55.633Z,17.53
2018-09-02T21:02:24.507Z,18.10
2018-09-02T21:04:53.750Z,17.20
2018-09-02T21:07:23.389Z,18.07
2018-09-02T21:09:53.025Z,19.30
2018-09-02T21:12:22.299Z,18.87
2018-09-02T21:14:51.043Z,19.10
2018-09-02T21:17:21.035Z,18.50
2018-09-02T21:19:50.353Z,18.73
2018-09-02T21:22:19.118Z,19.47
2018-09-02T21:24:48.003Z,18.97
2018-09-02T21:27:17.693Z,18.30
2018-09-02T21:29:46.506Z,18.43
2018-09-02T21:32:15.272Z,17.30
2018-09-02T21:34:44.018Z,17.57
2018-09-02T21:37:12.866Z,17.17
2018-09-02T21:39:41.529Z,17.07
2018-09-02T21:42:11.613Z,16.93
2018-09-02T21:44:41.395Z,16.97
2018-09-02T21:47:10.786Z,17.83
2018-09-02T21:49:39.676Z,17.20
2018-09-02T21:52:09.425Z,17.27
2018-09-02T21:54:38.103Z,16.93
2018-09-02T21:57:07.726Z,17.70
2018-09-02T21:59:36.718Z,16.73
2018-09-02T22:02:05.426Z,17.63
2018-09-02T22:04:34.951Z,16.67
2018-09-02T22:07:03.637Z,16.17
2018-09-02T22:09:32.377Z,16.97
2018-09-02T22:12:00.991Z,16.90
2018-09-02T22:14:30.056Z,16.97
2018-09-02T22:16:59.178Z,16.43
2018-09-02T22:19:27.799Z,17.53
2018-09-02T22:21:56.538Z,16.87
2018-09-02T22:24:25.229Z,17.93
2018-09-02T22:26:53.949Z,16.67
2018-09-02T22:29:22.857Z,17.23
2018-09-02T22:31:51.506Z,17.03
2018-09-02T22:34:20.119Z,17.93
2018-09-02T22:36:48.793Z,18.00
2018-09-02T22:39:17.421Z,17.83
2018-09-02T22:41:48.303Z,18.03
2018-09-02T22:44:19.656Z,18.20
2018-09-02T22:46:48.503Z,18.53
2018-09-02T22:49:17.267Z,18.20
2018-09-02T22:51:46.184Z,18.23
2018-09-02T22:54:15.409Z,19.23
2018-09-02T22:56:44.863Z,18.73
2018-09-02T22:59:13.606Z,18.63
2018-09-02T23:01:42.458Z,17.97
2018-09-02T23:04:11.097Z,19.13
2018-09-02T23:06:40.022Z,18.30
2018-09-02T23:09:09.561Z,18.20
2018-09-02T23:11:38.242Z,18.87
2018-09-02T23:14:06.885Z,17.70
2018-09-02T23:16:35.723Z,17.43
2018-09-02T23:19:04.413Z,19.03
2018-09-02T23:21:33.091Z,18.50
2018-09-02T23:24:01.805Z,18.50
2018-09-02T23:26:31.397Z,17.30
2018-09-02T23:29:00.365Z,19.03
2018-09-02T23:31:29.066Z,18.30
2018-09-02T23:33:58.454Z,18.80
2018-09-02T23:36:27.177Z,17.43
2018-09-02T23:38:55.878Z,18.10
2018-09-02T23:41:24.562Z,18.70
2018-09-02T23:43:53.312Z,18.87
2018-09-02T23:46:21.976Z,18.40
2018-09-02T23:48:50.562Z,18.80
2018-09-02T23:51:19.241Z,18.73
2018-09-02T23:53:47.844Z,19.97
2018-09-02T23:56:16.447Z,19.27
2018-09-02T23:58:46.133Z,19.17
